<?xml version="1.0" encoding="UTF-8" standalone="no" ?>
<gpx xmlns="http://www.topografix.com/GPX/1/1" xmlns:xsi="http://www.w3.org/2001/XMLSchema-instance" xsi:schemaLocation="http://www.topografix.com/GPX/1/1 http://www.topografix.com/GPX/1/1/gpx.xsd" version="1.1" creator="VisuGPX - https://www.visugpx.com">
  <metadata>
    <name>2015-04-14-PEDESTRE_FIRMI(12)</name>
    <desc><![CDATA[2015-04-14-PEDESTRE_FIRMI(12)]]></desc>
  </metadata>
  <trk>
    <name><![CDATA[2015-04-14-PEDESTRE_FIRMI(12)]]></name>
    <trkseg>
      <trkpt lat="44.54503" lon="2.3222">
        <ele>287.9</ele>
        <time>2015-04-14T15:57:20Z</time>
      </trkpt>
      <trkpt lat="44.54503" lon="2.3222">
        <ele>305.4</ele>
        <time>2015-04-14T15:57:21Z</time>
      </trkpt>
      <trkpt lat="44.54506" lon="2.32208">
        <ele>359.1</ele>
        <time>2015-04-14T16:00:57Z</time>
      </trkpt>
      <trkpt lat="44.54504" lon="2.32207">
        <ele>358</ele>
        <time>2015-04-14T16:01:20Z</time>
      </trkpt>
      <trkpt lat="44.54512" lon="2.32241">
        <ele>360.5</ele>
        <time>2015-04-14T16:33:13Z</time>
      </trkpt>
      <trkpt lat="44.54507" lon="2.32231">
        <ele>361.2</ele>
        <time>2015-04-14T16:33:37Z</time>
      </trkpt>
      <trkpt lat="44.54499" lon="2.32224">
        <ele>360.1</ele>
        <time>2015-04-14T16:34:06Z</time>
      </trkpt>
      <trkpt lat="44.54506" lon="2.32216">
        <ele>359.1</ele>
        <time>2015-04-14T16:36:41Z</time>
      </trkpt>
      <trkpt lat="44.54514" lon="2.32224">
        <ele>359.9</ele>
        <time>2015-04-14T16:37:41Z</time>
      </trkpt>
      <trkpt lat="44.54519" lon="2.32214">
        <ele>361.4</ele>
        <time>2015-04-14T16:39:41Z</time>
      </trkpt>
      <trkpt lat="44.54527" lon="2.32208">
        <ele>362.1</ele>
        <time>2015-04-14T16:39:52Z</time>
      </trkpt>
      <trkpt lat="44.54531" lon="2.32196">
        <ele>362.7</ele>
        <time>2015-04-14T16:40:03Z</time>
      </trkpt>
      <trkpt lat="44.5453" lon="2.32182">
        <ele>363.1</ele>
        <time>2015-04-14T16:40:32Z</time>
      </trkpt>
      <trkpt lat="44.54532" lon="2.32169">
        <ele>363.9</ele>
        <time>2015-04-14T16:40:41Z</time>
      </trkpt>
      <trkpt lat="44.54531" lon="2.32155">
        <ele>364.1</ele>
        <time>2015-04-14T16:40:49Z</time>
      </trkpt>
      <trkpt lat="44.54531" lon="2.32142">
        <ele>364.4</ele>
        <time>2015-04-14T16:40:58Z</time>
      </trkpt>
      <trkpt lat="44.54532" lon="2.32129">
        <ele>364.4</ele>
        <time>2015-04-14T16:41:20Z</time>
      </trkpt>
      <trkpt lat="44.54533" lon="2.32116">
        <ele>364</ele>
        <time>2015-04-14T16:41:29Z</time>
      </trkpt>
      <trkpt lat="44.54536" lon="2.32103">
        <ele>364.8</ele>
        <time>2015-04-14T16:41:43Z</time>
      </trkpt>
      <trkpt lat="44.54539" lon="2.3209">
        <ele>366.1</ele>
        <time>2015-04-14T16:41:53Z</time>
      </trkpt>
      <trkpt lat="44.54544" lon="2.32079">
        <ele>365.8</ele>
        <time>2015-04-14T16:42:08Z</time>
      </trkpt>
      <trkpt lat="44.54548" lon="2.32067">
        <ele>366.3</ele>
        <time>2015-04-14T16:42:17Z</time>
      </trkpt>
      <trkpt lat="44.54552" lon="2.32055">
        <ele>365.1</ele>
        <time>2015-04-14T16:42:27Z</time>
      </trkpt>
      <trkpt lat="44.54557" lon="2.32043">
        <ele>365.7</ele>
        <time>2015-04-14T16:42:38Z</time>
      </trkpt>
      <trkpt lat="44.54563" lon="2.32032">
        <ele>366.1</ele>
        <time>2015-04-14T16:42:50Z</time>
      </trkpt>
      <trkpt lat="44.54569" lon="2.32023">
        <ele>365.8</ele>
        <time>2015-04-14T16:43:01Z</time>
      </trkpt>
      <trkpt lat="44.54577" lon="2.32016">
        <ele>366.9</ele>
        <time>2015-04-14T16:43:15Z</time>
      </trkpt>
      <trkpt lat="44.54583" lon="2.32006">
        <ele>367</ele>
        <time>2015-04-14T16:43:26Z</time>
      </trkpt>
      <trkpt lat="44.5459" lon="2.31997">
        <ele>366.9</ele>
        <time>2015-04-14T16:43:37Z</time>
      </trkpt>
      <trkpt lat="44.54597" lon="2.31987">
        <ele>367.9</ele>
        <time>2015-04-14T16:43:47Z</time>
      </trkpt>
      <trkpt lat="44.54605" lon="2.31979">
        <ele>367.7</ele>
        <time>2015-04-14T16:43:57Z</time>
      </trkpt>
      <trkpt lat="44.54612" lon="2.31971">
        <ele>367.6</ele>
        <time>2015-04-14T16:44:08Z</time>
      </trkpt>
      <trkpt lat="44.5462" lon="2.31963">
        <ele>368.3</ele>
        <time>2015-04-14T16:44:17Z</time>
      </trkpt>
      <trkpt lat="44.54629" lon="2.31958">
        <ele>367.7</ele>
        <time>2015-04-14T16:44:28Z</time>
      </trkpt>
      <trkpt lat="44.54637" lon="2.31951">
        <ele>367.9</ele>
        <time>2015-04-14T16:44:37Z</time>
      </trkpt>
      <trkpt lat="44.54644" lon="2.31944">
        <ele>367.3</ele>
        <time>2015-04-14T16:44:48Z</time>
      </trkpt>
      <trkpt lat="44.54653" lon="2.31937">
        <ele>367.1</ele>
        <time>2015-04-14T16:45:00Z</time>
      </trkpt>
      <trkpt lat="44.54659" lon="2.31928">
        <ele>367.8</ele>
        <time>2015-04-14T16:45:13Z</time>
      </trkpt>
      <trkpt lat="44.54672" lon="2.31909">
        <ele>368.1</ele>
        <time>2015-04-14T16:45:36Z</time>
      </trkpt>
      <trkpt lat="44.5468" lon="2.31901">
        <ele>368.1</ele>
        <time>2015-04-14T16:46:44Z</time>
      </trkpt>
      <trkpt lat="44.54695" lon="2.31887">
        <ele>367.6</ele>
        <time>2015-04-14T16:47:02Z</time>
      </trkpt>
      <trkpt lat="44.54702" lon="2.31878">
        <ele>367.6</ele>
        <time>2015-04-14T16:47:11Z</time>
      </trkpt>
      <trkpt lat="44.54709" lon="2.31869">
        <ele>367.3</ele>
        <time>2015-04-14T16:47:19Z</time>
      </trkpt>
      <trkpt lat="44.54716" lon="2.31861">
        <ele>366.9</ele>
        <time>2015-04-14T16:47:27Z</time>
      </trkpt>
      <trkpt lat="44.54721" lon="2.31851">
        <ele>365.9</ele>
        <time>2015-04-14T16:47:35Z</time>
      </trkpt>
      <trkpt lat="44.54724" lon="2.31839">
        <ele>366.3</ele>
        <time>2015-04-14T16:47:43Z</time>
      </trkpt>
      <trkpt lat="44.54722" lon="2.31826">
        <ele>364.7</ele>
        <time>2015-04-14T16:47:52Z</time>
      </trkpt>
      <trkpt lat="44.5472" lon="2.31798">
        <ele>362.8</ele>
        <time>2015-04-14T16:48:10Z</time>
      </trkpt>
      <trkpt lat="44.54717" lon="2.31786">
        <ele>360.8</ele>
        <time>2015-04-14T16:48:19Z</time>
      </trkpt>
      <trkpt lat="44.54713" lon="2.31774">
        <ele>360</ele>
        <time>2015-04-14T16:48:30Z</time>
      </trkpt>
      <trkpt lat="44.54707" lon="2.31764">
        <ele>359.5</ele>
        <time>2015-04-14T16:48:38Z</time>
      </trkpt>
      <trkpt lat="44.54702" lon="2.31753">
        <ele>358.3</ele>
        <time>2015-04-14T16:48:46Z</time>
      </trkpt>
      <trkpt lat="44.54699" lon="2.3174">
        <ele>358.5</ele>
        <time>2015-04-14T16:48:54Z</time>
      </trkpt>
      <trkpt lat="44.547" lon="2.31712">
        <ele>358</ele>
        <time>2015-04-14T16:49:24Z</time>
      </trkpt>
      <trkpt lat="44.54704" lon="2.31699">
        <ele>357.6</ele>
        <time>2015-04-14T16:49:34Z</time>
      </trkpt>
      <trkpt lat="44.54709" lon="2.31688">
        <ele>358</ele>
        <time>2015-04-14T16:49:44Z</time>
      </trkpt>
      <trkpt lat="44.54715" lon="2.31679">
        <ele>356.8</ele>
        <time>2015-04-14T16:49:54Z</time>
      </trkpt>
      <trkpt lat="44.54723" lon="2.31673">
        <ele>356.7</ele>
        <time>2015-04-14T16:50:03Z</time>
      </trkpt>
      <trkpt lat="44.54741" lon="2.31662">
        <ele>356.5</ele>
        <time>2015-04-14T16:50:21Z</time>
      </trkpt>
      <trkpt lat="44.54749" lon="2.31655">
        <ele>355</ele>
        <time>2015-04-14T16:50:29Z</time>
      </trkpt>
      <trkpt lat="44.54758" lon="2.3165">
        <ele>355.4</ele>
        <time>2015-04-14T16:50:38Z</time>
      </trkpt>
      <trkpt lat="44.54766" lon="2.31643">
        <ele>355.2</ele>
        <time>2015-04-14T16:50:48Z</time>
      </trkpt>
      <trkpt lat="44.54775" lon="2.31637">
        <ele>354.4</ele>
        <time>2015-04-14T16:50:58Z</time>
      </trkpt>
      <trkpt lat="44.54784" lon="2.31631">
        <ele>353.7</ele>
        <time>2015-04-14T16:51:08Z</time>
      </trkpt>
      <trkpt lat="44.548" lon="2.31617">
        <ele>354.4</ele>
        <time>2015-04-14T16:51:26Z</time>
      </trkpt>
      <trkpt lat="44.54809" lon="2.31611">
        <ele>354.6</ele>
        <time>2015-04-14T16:51:35Z</time>
      </trkpt>
      <trkpt lat="44.54818" lon="2.31608">
        <ele>354.6</ele>
        <time>2015-04-14T16:51:56Z</time>
      </trkpt>
      <trkpt lat="44.54826" lon="2.31601">
        <ele>354.2</ele>
        <time>2015-04-14T16:52:04Z</time>
      </trkpt>
      <trkpt lat="44.54836" lon="2.31595">
        <ele>354.3</ele>
        <time>2015-04-14T16:52:12Z</time>
      </trkpt>
      <trkpt lat="44.54854" lon="2.31586">
        <ele>355.1</ele>
        <time>2015-04-14T16:52:31Z</time>
      </trkpt>
      <trkpt lat="44.54863" lon="2.31584">
        <ele>355.2</ele>
        <time>2015-04-14T16:52:42Z</time>
      </trkpt>
      <trkpt lat="44.54872" lon="2.3158">
        <ele>354.8</ele>
        <time>2015-04-14T16:52:52Z</time>
      </trkpt>
      <trkpt lat="44.54881" lon="2.31576">
        <ele>355.7</ele>
        <time>2015-04-14T16:53:01Z</time>
      </trkpt>
      <trkpt lat="44.5489" lon="2.31571">
        <ele>354.7</ele>
        <time>2015-04-14T16:53:09Z</time>
      </trkpt>
      <trkpt lat="44.54898" lon="2.31562">
        <ele>354.9</ele>
        <time>2015-04-14T16:53:18Z</time>
      </trkpt>
      <trkpt lat="44.54911" lon="2.31544">
        <ele>354.1</ele>
        <time>2015-04-14T16:53:40Z</time>
      </trkpt>
      <trkpt lat="44.54917" lon="2.31532">
        <ele>354</ele>
        <time>2015-04-14T16:53:52Z</time>
      </trkpt>
      <trkpt lat="44.5492" lon="2.31519">
        <ele>355.3</ele>
        <time>2015-04-14T16:54:11Z</time>
      </trkpt>
      <trkpt lat="44.54924" lon="2.31507">
        <ele>354.5</ele>
        <time>2015-04-14T16:54:19Z</time>
      </trkpt>
      <trkpt lat="44.54927" lon="2.3148">
        <ele>356</ele>
        <time>2015-04-14T16:54:37Z</time>
      </trkpt>
      <trkpt lat="44.5493" lon="2.31466">
        <ele>356</ele>
        <time>2015-04-14T16:54:47Z</time>
      </trkpt>
      <trkpt lat="44.54928" lon="2.31453">
        <ele>355.8</ele>
        <time>2015-04-14T16:54:55Z</time>
      </trkpt>
      <trkpt lat="44.54923" lon="2.3144">
        <ele>356.2</ele>
        <time>2015-04-14T16:55:04Z</time>
      </trkpt>
      <trkpt lat="44.54919" lon="2.31429">
        <ele>355.8</ele>
        <time>2015-04-14T16:55:12Z</time>
      </trkpt>
      <trkpt lat="44.54912" lon="2.31419">
        <ele>356.2</ele>
        <time>2015-04-14T16:55:21Z</time>
      </trkpt>
      <trkpt lat="44.549" lon="2.31396">
        <ele>354.9</ele>
        <time>2015-04-14T16:55:38Z</time>
      </trkpt>
      <trkpt lat="44.54896" lon="2.31385">
        <ele>354.4</ele>
        <time>2015-04-14T16:55:47Z</time>
      </trkpt>
      <trkpt lat="44.5489" lon="2.31374">
        <ele>353.3</ele>
        <time>2015-04-14T16:55:56Z</time>
      </trkpt>
      <trkpt lat="44.54883" lon="2.31364">
        <ele>351.9</ele>
        <time>2015-04-14T16:56:05Z</time>
      </trkpt>
      <trkpt lat="44.54874" lon="2.31358">
        <ele>351.7</ele>
        <time>2015-04-14T16:56:14Z</time>
      </trkpt>
      <trkpt lat="44.54865" lon="2.31354">
        <ele>350.6</ele>
        <time>2015-04-14T16:56:22Z</time>
      </trkpt>
      <trkpt lat="44.54847" lon="2.31342">
        <ele>348.6</ele>
        <time>2015-04-14T16:56:39Z</time>
      </trkpt>
      <trkpt lat="44.54842" lon="2.31331">
        <ele>348.2</ele>
        <time>2015-04-14T16:56:47Z</time>
      </trkpt>
      <trkpt lat="44.54838" lon="2.3132">
        <ele>347.1</ele>
        <time>2015-04-14T16:56:56Z</time>
      </trkpt>
      <trkpt lat="44.54833" lon="2.31309">
        <ele>345.9</ele>
        <time>2015-04-14T16:57:07Z</time>
      </trkpt>
      <trkpt lat="44.54827" lon="2.31298">
        <ele>344.5</ele>
        <time>2015-04-14T16:57:16Z</time>
      </trkpt>
      <trkpt lat="44.54822" lon="2.31287">
        <ele>342.7</ele>
        <time>2015-04-14T16:57:26Z</time>
      </trkpt>
      <trkpt lat="44.54812" lon="2.31264">
        <ele>342</ele>
        <time>2015-04-14T16:57:44Z</time>
      </trkpt>
      <trkpt lat="44.54809" lon="2.31251">
        <ele>340.4</ele>
        <time>2015-04-14T16:57:52Z</time>
      </trkpt>
      <trkpt lat="44.54807" lon="2.31238">
        <ele>338.8</ele>
        <time>2015-04-14T16:58:00Z</time>
      </trkpt>
      <trkpt lat="44.54809" lon="2.31225">
        <ele>338.7</ele>
        <time>2015-04-14T16:58:08Z</time>
      </trkpt>
      <trkpt lat="44.54811" lon="2.31213">
        <ele>338</ele>
        <time>2015-04-14T16:58:16Z</time>
      </trkpt>
      <trkpt lat="44.54814" lon="2.31201">
        <ele>336.1</ele>
        <time>2015-04-14T16:58:27Z</time>
      </trkpt>
      <trkpt lat="44.54812" lon="2.31173">
        <ele>335</ele>
        <time>2015-04-14T16:58:45Z</time>
      </trkpt>
      <trkpt lat="44.5481" lon="2.3116">
        <ele>334.3</ele>
        <time>2015-04-14T16:58:52Z</time>
      </trkpt>
      <trkpt lat="44.54803" lon="2.31148">
        <ele>333</ele>
        <time>2015-04-14T16:59:01Z</time>
      </trkpt>
      <trkpt lat="44.54797" lon="2.31139">
        <ele>332.3</ele>
        <time>2015-04-14T16:59:09Z</time>
      </trkpt>
      <trkpt lat="44.54789" lon="2.31131">
        <ele>331.6</ele>
        <time>2015-04-14T16:59:17Z</time>
      </trkpt>
      <trkpt lat="44.5478" lon="2.31127">
        <ele>330.4</ele>
        <time>2015-04-14T16:59:23Z</time>
      </trkpt>
      <trkpt lat="44.5477" lon="2.31123">
        <ele>329.3</ele>
        <time>2015-04-14T16:59:34Z</time>
      </trkpt>
      <trkpt lat="44.54751" lon="2.31119">
        <ele>328.4</ele>
        <time>2015-04-14T16:59:51Z</time>
      </trkpt>
      <trkpt lat="44.54741" lon="2.31119">
        <ele>327.8</ele>
        <time>2015-04-14T16:59:59Z</time>
      </trkpt>
      <trkpt lat="44.54732" lon="2.31119">
        <ele>327.7</ele>
        <time>2015-04-14T17:00:07Z</time>
      </trkpt>
      <trkpt lat="44.54738" lon="2.31109">
        <ele>325.3</ele>
        <time>2015-04-14T17:00:25Z</time>
      </trkpt>
      <trkpt lat="44.54747" lon="2.31106">
        <ele>325.4</ele>
        <time>2015-04-14T17:00:34Z</time>
      </trkpt>
      <trkpt lat="44.54756" lon="2.31104">
        <ele>324.5</ele>
        <time>2015-04-14T17:00:44Z</time>
      </trkpt>
      <trkpt lat="44.54775" lon="2.31097">
        <ele>323.5</ele>
        <time>2015-04-14T17:01:04Z</time>
      </trkpt>
      <trkpt lat="44.54784" lon="2.31095">
        <ele>324.2</ele>
        <time>2015-04-14T17:01:14Z</time>
      </trkpt>
      <trkpt lat="44.54793" lon="2.31095">
        <ele>322.8</ele>
        <time>2015-04-14T17:01:22Z</time>
      </trkpt>
      <trkpt lat="44.54803" lon="2.31097">
        <ele>323.1</ele>
        <time>2015-04-14T17:01:30Z</time>
      </trkpt>
      <trkpt lat="44.54812" lon="2.31101">
        <ele>322.1</ele>
        <time>2015-04-14T17:01:39Z</time>
      </trkpt>
      <trkpt lat="44.54821" lon="2.31104">
        <ele>322.4</ele>
        <time>2015-04-14T17:01:47Z</time>
      </trkpt>
      <trkpt lat="44.5484" lon="2.31108">
        <ele>324.8</ele>
        <time>2015-04-14T17:02:25Z</time>
      </trkpt>
      <trkpt lat="44.54849" lon="2.31109">
        <ele>326.2</ele>
        <time>2015-04-14T17:02:34Z</time>
      </trkpt>
      <trkpt lat="44.54856" lon="2.31102">
        <ele>327.4</ele>
        <time>2015-04-14T17:02:47Z</time>
      </trkpt>
      <trkpt lat="44.54864" lon="2.31095">
        <ele>329.6</ele>
        <time>2015-04-14T17:03:03Z</time>
      </trkpt>
      <trkpt lat="44.5488" lon="2.31084">
        <ele>330.1</ele>
        <time>2015-04-14T17:03:35Z</time>
      </trkpt>
      <trkpt lat="44.54888" lon="2.31077">
        <ele>332.6</ele>
        <time>2015-04-14T17:03:50Z</time>
      </trkpt>
      <trkpt lat="44.54892" lon="2.31065">
        <ele>332.4</ele>
        <time>2015-04-14T17:04:00Z</time>
      </trkpt>
      <trkpt lat="44.54889" lon="2.31052">
        <ele>332.6</ele>
        <time>2015-04-14T17:04:25Z</time>
      </trkpt>
      <trkpt lat="44.54902" lon="2.31034">
        <ele>327.8</ele>
        <time>2015-04-14T17:04:46Z</time>
      </trkpt>
      <trkpt lat="44.5491" lon="2.31026">
        <ele>323.8</ele>
        <time>2015-04-14T17:04:56Z</time>
      </trkpt>
      <trkpt lat="44.54919" lon="2.31032">
        <ele>321.1</ele>
        <time>2015-04-14T17:05:03Z</time>
      </trkpt>
      <trkpt lat="44.54921" lon="2.31044">
        <ele>319.4</ele>
        <time>2015-04-14T17:05:17Z</time>
      </trkpt>
      <trkpt lat="44.54925" lon="2.31056">
        <ele>316.2</ele>
        <time>2015-04-14T17:05:30Z</time>
      </trkpt>
      <trkpt lat="44.54918" lon="2.31033">
        <ele>318.7</ele>
        <time>2015-04-14T17:06:10Z</time>
      </trkpt>
      <trkpt lat="44.5491" lon="2.31025">
        <ele>320.3</ele>
        <time>2015-04-14T17:06:17Z</time>
      </trkpt>
      <trkpt lat="44.54902" lon="2.31035">
        <ele>322.4</ele>
        <time>2015-04-14T17:06:23Z</time>
      </trkpt>
      <trkpt lat="44.54895" lon="2.31043">
        <ele>325.7</ele>
        <time>2015-04-14T17:06:29Z</time>
      </trkpt>
      <trkpt lat="44.54885" lon="2.3105">
        <ele>328.1</ele>
        <time>2015-04-14T17:06:34Z</time>
      </trkpt>
      <trkpt lat="44.5487" lon="2.31066">
        <ele>332.1</ele>
        <time>2015-04-14T17:06:47Z</time>
      </trkpt>
      <trkpt lat="44.54869" lon="2.31078">
        <ele>333.2</ele>
        <time>2015-04-14T17:07:02Z</time>
      </trkpt>
      <trkpt lat="44.54877" lon="2.31084">
        <ele>331.1</ele>
        <time>2015-04-14T17:07:27Z</time>
      </trkpt>
      <trkpt lat="44.54869" lon="2.31077">
        <ele>332.3</ele>
        <time>2015-04-14T17:08:53Z</time>
      </trkpt>
      <trkpt lat="44.54878" lon="2.31057">
        <ele>333.3</ele>
        <time>2015-04-14T17:09:15Z</time>
      </trkpt>
      <trkpt lat="44.54886" lon="2.31049">
        <ele>332</ele>
        <time>2015-04-14T17:09:24Z</time>
      </trkpt>
      <trkpt lat="44.54894" lon="2.31042">
        <ele>330.8</ele>
        <time>2015-04-14T17:09:35Z</time>
      </trkpt>
      <trkpt lat="44.549" lon="2.31033">
        <ele>327.6</ele>
        <time>2015-04-14T17:10:01Z</time>
      </trkpt>
      <trkpt lat="44.54915" lon="2.31031">
        <ele>321.4</ele>
        <time>2015-04-14T17:10:25Z</time>
      </trkpt>
      <trkpt lat="44.54923" lon="2.31038">
        <ele>320.9</ele>
        <time>2015-04-14T17:10:38Z</time>
      </trkpt>
      <trkpt lat="44.5492" lon="2.31051">
        <ele>317.7</ele>
        <time>2015-04-14T17:11:02Z</time>
      </trkpt>
      <trkpt lat="44.5493" lon="2.31075">
        <ele>311.1</ele>
        <time>2015-04-14T17:11:33Z</time>
      </trkpt>
      <trkpt lat="44.54927" lon="2.31087">
        <ele>306.8</ele>
        <time>2015-04-14T17:12:24Z</time>
      </trkpt>
      <trkpt lat="44.54927" lon="2.31111">
        <ele>303.4</ele>
        <time>2015-04-14T17:12:46Z</time>
      </trkpt>
      <trkpt lat="44.54926" lon="2.31124">
        <ele>303.3</ele>
        <time>2015-04-14T17:12:58Z</time>
      </trkpt>
      <trkpt lat="44.54923" lon="2.31136">
        <ele>302.7</ele>
        <time>2015-04-14T17:13:07Z</time>
      </trkpt>
      <trkpt lat="44.54922" lon="2.3115">
        <ele>302</ele>
        <time>2015-04-14T17:13:18Z</time>
      </trkpt>
      <trkpt lat="44.54924" lon="2.31163">
        <ele>301.6</ele>
        <time>2015-04-14T17:13:38Z</time>
      </trkpt>
      <trkpt lat="44.54937" lon="2.31178">
        <ele>297.3</ele>
        <time>2015-04-14T17:14:04Z</time>
      </trkpt>
      <trkpt lat="44.54943" lon="2.31168">
        <ele>293.5</ele>
        <time>2015-04-14T17:14:40Z</time>
      </trkpt>
      <trkpt lat="44.54958" lon="2.3118">
        <ele>292.8</ele>
        <time>2015-04-14T17:16:13Z</time>
      </trkpt>
      <trkpt lat="44.54975" lon="2.31183">
        <ele>289</ele>
        <time>2015-04-14T17:17:06Z</time>
      </trkpt>
      <trkpt lat="44.54982" lon="2.31176">
        <ele>289.9</ele>
        <time>2015-04-14T17:18:21Z</time>
      </trkpt>
      <trkpt lat="44.54977" lon="2.31151">
        <ele>288.9</ele>
        <time>2015-04-14T17:18:59Z</time>
      </trkpt>
      <trkpt lat="44.54978" lon="2.31138">
        <ele>288.7</ele>
        <time>2015-04-14T17:19:17Z</time>
      </trkpt>
      <trkpt lat="44.54982" lon="2.31126">
        <ele>287.6</ele>
        <time>2015-04-14T17:19:35Z</time>
      </trkpt>
      <trkpt lat="44.54993" lon="2.31106">
        <ele>288</ele>
        <time>2015-04-14T17:20:04Z</time>
      </trkpt>
      <trkpt lat="44.54997" lon="2.31095">
        <ele>288.5</ele>
        <time>2015-04-14T17:20:27Z</time>
      </trkpt>
      <trkpt lat="44.55002" lon="2.31084">
        <ele>288.4</ele>
        <time>2015-04-14T17:20:42Z</time>
      </trkpt>
      <trkpt lat="44.55009" lon="2.31059">
        <ele>288.4</ele>
        <time>2015-04-14T17:21:20Z</time>
      </trkpt>
      <trkpt lat="44.55009" lon="2.31046">
        <ele>288.1</ele>
        <time>2015-04-14T17:21:36Z</time>
      </trkpt>
      <trkpt lat="44.55012" lon="2.31033">
        <ele>287.7</ele>
        <time>2015-04-14T17:21:51Z</time>
      </trkpt>
      <trkpt lat="44.55017" lon="2.31007">
        <ele>287.9</ele>
        <time>2015-04-14T17:22:27Z</time>
      </trkpt>
      <trkpt lat="44.55016" lon="2.30994">
        <ele>287.6</ele>
        <time>2015-04-14T17:22:41Z</time>
      </trkpt>
      <trkpt lat="44.55014" lon="2.30982">
        <ele>287.3</ele>
        <time>2015-04-14T17:22:51Z</time>
      </trkpt>
      <trkpt lat="44.55011" lon="2.30969">
        <ele>287.2</ele>
        <time>2015-04-14T17:23:02Z</time>
      </trkpt>
      <trkpt lat="44.54995" lon="2.30955">
        <ele>285.5</ele>
        <time>2015-04-14T17:23:39Z</time>
      </trkpt>
      <trkpt lat="44.54987" lon="2.30949">
        <ele>285.8</ele>
        <time>2015-04-14T17:23:51Z</time>
      </trkpt>
      <trkpt lat="44.54978" lon="2.30942">
        <ele>284.3</ele>
        <time>2015-04-14T17:24:04Z</time>
      </trkpt>
      <trkpt lat="44.54963" lon="2.30928">
        <ele>284.2</ele>
        <time>2015-04-14T17:24:30Z</time>
      </trkpt>
      <trkpt lat="44.54957" lon="2.30919">
        <ele>283.9</ele>
        <time>2015-04-14T17:24:42Z</time>
      </trkpt>
      <trkpt lat="44.5495" lon="2.3091">
        <ele>282.8</ele>
        <time>2015-04-14T17:24:52Z</time>
      </trkpt>
      <trkpt lat="44.54943" lon="2.309">
        <ele>282.9</ele>
        <time>2015-04-14T17:25:00Z</time>
      </trkpt>
      <trkpt lat="44.54936" lon="2.30893">
        <ele>282.6</ele>
        <time>2015-04-14T17:25:09Z</time>
      </trkpt>
      <trkpt lat="44.5492" lon="2.30879">
        <ele>282.5</ele>
        <time>2015-04-14T17:25:30Z</time>
      </trkpt>
      <trkpt lat="44.54912" lon="2.30872">
        <ele>281.5</ele>
        <time>2015-04-14T17:25:52Z</time>
      </trkpt>
      <trkpt lat="44.54911" lon="2.30886">
        <ele>278.6</ele>
        <time>2015-04-14T17:26:35Z</time>
      </trkpt>
      <trkpt lat="44.54897" lon="2.30872">
        <ele>278.1</ele>
        <time>2015-04-14T17:27:17Z</time>
      </trkpt>
      <trkpt lat="44.54887" lon="2.30869">
        <ele>278.5</ele>
        <time>2015-04-14T17:27:27Z</time>
      </trkpt>
      <trkpt lat="44.54878" lon="2.30865">
        <ele>277.3</ele>
        <time>2015-04-14T17:27:36Z</time>
      </trkpt>
      <trkpt lat="44.54866" lon="2.30848">
        <ele>282.3</ele>
        <time>2015-04-14T17:28:23Z</time>
      </trkpt>
      <trkpt lat="44.54859" lon="2.3084">
        <ele>283.6</ele>
        <time>2015-04-14T17:28:33Z</time>
      </trkpt>
      <trkpt lat="44.5485" lon="2.30835">
        <ele>283.5</ele>
        <time>2015-04-14T17:28:45Z</time>
      </trkpt>
      <trkpt lat="44.54832" lon="2.30825">
        <ele>282.9</ele>
        <time>2015-04-14T17:29:10Z</time>
      </trkpt>
      <trkpt lat="44.54824" lon="2.30821">
        <ele>285.8</ele>
        <time>2015-04-14T17:29:22Z</time>
      </trkpt>
      <trkpt lat="44.54815" lon="2.30818">
        <ele>286.5</ele>
        <time>2015-04-14T17:29:34Z</time>
      </trkpt>
      <trkpt lat="44.54805" lon="2.30815">
        <ele>287.8</ele>
        <time>2015-04-14T17:29:45Z</time>
      </trkpt>
      <trkpt lat="44.54798" lon="2.30807">
        <ele>287.2</ele>
        <time>2015-04-14T17:30:07Z</time>
      </trkpt>
      <trkpt lat="44.54784" lon="2.30791">
        <ele>285</ele>
        <time>2015-04-14T17:30:39Z</time>
      </trkpt>
      <trkpt lat="44.54785" lon="2.30778">
        <ele>285.8</ele>
        <time>2015-04-14T17:30:59Z</time>
      </trkpt>
      <trkpt lat="44.5479" lon="2.30767">
        <ele>289</ele>
        <time>2015-04-14T17:31:20Z</time>
      </trkpt>
      <trkpt lat="44.54798" lon="2.30743">
        <ele>294.3</ele>
        <time>2015-04-14T17:32:00Z</time>
      </trkpt>
      <trkpt lat="44.54807" lon="2.30737">
        <ele>295.6</ele>
        <time>2015-04-14T17:32:12Z</time>
      </trkpt>
      <trkpt lat="44.54808" lon="2.30725">
        <ele>297.4</ele>
        <time>2015-04-14T17:32:31Z</time>
      </trkpt>
      <trkpt lat="44.54812" lon="2.307">
        <ele>298.8</ele>
        <time>2015-04-14T17:32:50Z</time>
      </trkpt>
      <trkpt lat="44.54812" lon="2.30687">
        <ele>297.9</ele>
        <time>2015-04-14T17:33:10Z</time>
      </trkpt>
      <trkpt lat="44.54813" lon="2.30674">
        <ele>297.2</ele>
        <time>2015-04-14T17:33:20Z</time>
      </trkpt>
      <trkpt lat="44.5481" lon="2.30662">
        <ele>296.2</ele>
        <time>2015-04-14T17:33:30Z</time>
      </trkpt>
      <trkpt lat="44.54803" lon="2.30653">
        <ele>295.7</ele>
        <time>2015-04-14T17:33:47Z</time>
      </trkpt>
      <trkpt lat="44.54786" lon="2.30645">
        <ele>292</ele>
        <time>2015-04-14T17:34:05Z</time>
      </trkpt>
      <trkpt lat="44.54777" lon="2.3064">
        <ele>289.7</ele>
        <time>2015-04-14T17:34:19Z</time>
      </trkpt>
      <trkpt lat="44.54773" lon="2.30628">
        <ele>288.2</ele>
        <time>2015-04-14T17:34:30Z</time>
      </trkpt>
      <trkpt lat="44.54766" lon="2.30619">
        <ele>287.4</ele>
        <time>2015-04-14T17:34:40Z</time>
      </trkpt>
      <trkpt lat="44.5476" lon="2.30609">
        <ele>286.6</ele>
        <time>2015-04-14T17:34:46Z</time>
      </trkpt>
      <trkpt lat="44.54756" lon="2.30598">
        <ele>284.6</ele>
        <time>2015-04-14T17:35:03Z</time>
      </trkpt>
      <trkpt lat="44.54738" lon="2.30586">
        <ele>281.7</ele>
        <time>2015-04-14T17:35:23Z</time>
      </trkpt>
      <trkpt lat="44.54729" lon="2.30582">
        <ele>278.7</ele>
        <time>2015-04-14T17:35:31Z</time>
      </trkpt>
      <trkpt lat="44.5472" lon="2.30576">
        <ele>276.9</ele>
        <time>2015-04-14T17:35:37Z</time>
      </trkpt>
      <trkpt lat="44.5471" lon="2.30576">
        <ele>274.6</ele>
        <time>2015-04-14T17:35:42Z</time>
      </trkpt>
      <trkpt lat="44.54702" lon="2.30584">
        <ele>272.1</ele>
        <time>2015-04-14T17:35:48Z</time>
      </trkpt>
      <trkpt lat="44.54711" lon="2.30584">
        <ele>273</ele>
        <time>2015-04-14T17:36:04Z</time>
      </trkpt>
      <trkpt lat="44.54694" lon="2.30576">
        <ele>270.3</ele>
        <time>2015-04-14T17:36:41Z</time>
      </trkpt>
      <trkpt lat="44.54689" lon="2.30565">
        <ele>267.5</ele>
        <time>2015-04-14T17:36:52Z</time>
      </trkpt>
      <trkpt lat="44.54683" lon="2.30554">
        <ele>265.8</ele>
        <time>2015-04-14T17:37:05Z</time>
      </trkpt>
      <trkpt lat="44.54675" lon="2.30531">
        <ele>265.4</ele>
        <time>2015-04-14T17:37:20Z</time>
      </trkpt>
      <trkpt lat="44.5467" lon="2.30519">
        <ele>264.3</ele>
        <time>2015-04-14T17:37:28Z</time>
      </trkpt>
      <trkpt lat="44.54665" lon="2.30509">
        <ele>265</ele>
        <time>2015-04-14T17:37:37Z</time>
      </trkpt>
      <trkpt lat="44.5466" lon="2.30497">
        <ele>263.5</ele>
        <time>2015-04-14T17:37:46Z</time>
      </trkpt>
      <trkpt lat="44.54656" lon="2.30485">
        <ele>262.6</ele>
        <time>2015-04-14T17:37:55Z</time>
      </trkpt>
      <trkpt lat="44.54653" lon="2.30473">
        <ele>263</ele>
        <time>2015-04-14T17:38:04Z</time>
      </trkpt>
      <trkpt lat="44.54651" lon="2.3046">
        <ele>263</ele>
        <time>2015-04-14T17:38:14Z</time>
      </trkpt>
      <trkpt lat="44.54646" lon="2.30435">
        <ele>261.8</ele>
        <time>2015-04-14T17:38:32Z</time>
      </trkpt>
      <trkpt lat="44.54646" lon="2.30421">
        <ele>262</ele>
        <time>2015-04-14T17:38:41Z</time>
      </trkpt>
      <trkpt lat="44.54645" lon="2.30408">
        <ele>262.2</ele>
        <time>2015-04-14T17:38:50Z</time>
      </trkpt>
      <trkpt lat="44.54643" lon="2.30395">
        <ele>261.3</ele>
        <time>2015-04-14T17:39:01Z</time>
      </trkpt>
      <trkpt lat="44.54635" lon="2.3039">
        <ele>261</ele>
        <time>2015-04-14T17:39:11Z</time>
      </trkpt>
      <trkpt lat="44.54625" lon="2.30389">
        <ele>261.4</ele>
        <time>2015-04-14T17:39:20Z</time>
      </trkpt>
      <trkpt lat="44.54605" lon="2.30386">
        <ele>258.6</ele>
        <time>2015-04-14T17:39:56Z</time>
      </trkpt>
      <trkpt lat="44.54596" lon="2.30383">
        <ele>258.4</ele>
        <time>2015-04-14T17:40:07Z</time>
      </trkpt>
      <trkpt lat="44.54591" lon="2.30371">
        <ele>257.9</ele>
        <time>2015-04-14T17:40:17Z</time>
      </trkpt>
      <trkpt lat="44.54588" lon="2.30358">
        <ele>257.6</ele>
        <time>2015-04-14T17:40:26Z</time>
      </trkpt>
      <trkpt lat="44.54584" lon="2.30334">
        <ele>257.1</ele>
        <time>2015-04-14T17:40:47Z</time>
      </trkpt>
      <trkpt lat="44.54586" lon="2.30321">
        <ele>257.1</ele>
        <time>2015-04-14T17:40:58Z</time>
      </trkpt>
      <trkpt lat="44.5458" lon="2.30312">
        <ele>256.6</ele>
        <time>2015-04-14T17:41:08Z</time>
      </trkpt>
      <trkpt lat="44.54571" lon="2.3031">
        <ele>257</ele>
        <time>2015-04-14T17:41:20Z</time>
      </trkpt>
      <trkpt lat="44.54567" lon="2.30298">
        <ele>257.3</ele>
        <time>2015-04-14T17:41:38Z</time>
      </trkpt>
      <trkpt lat="44.54575" lon="2.30273">
        <ele>256.6</ele>
        <time>2015-04-14T17:42:07Z</time>
      </trkpt>
      <trkpt lat="44.54578" lon="2.30285">
        <ele>257.6</ele>
        <time>2015-04-14T17:50:38Z</time>
      </trkpt>
      <trkpt lat="44.54565" lon="2.30306">
        <ele>257.9</ele>
        <time>2015-04-14T17:50:58Z</time>
      </trkpt>
      <trkpt lat="44.54559" lon="2.30317">
        <ele>256.5</ele>
        <time>2015-04-14T17:51:07Z</time>
      </trkpt>
      <trkpt lat="44.54553" lon="2.30329">
        <ele>256.7</ele>
        <time>2015-04-14T17:51:20Z</time>
      </trkpt>
      <trkpt lat="44.54546" lon="2.3034">
        <ele>257.3</ele>
        <time>2015-04-14T17:51:25Z</time>
      </trkpt>
      <trkpt lat="44.54539" lon="2.30348">
        <ele>257.9</ele>
        <time>2015-04-14T17:51:35Z</time>
      </trkpt>
      <trkpt lat="44.54531" lon="2.30355">
        <ele>257.1</ele>
        <time>2015-04-14T17:51:51Z</time>
      </trkpt>
      <trkpt lat="44.54514" lon="2.30368">
        <ele>257.1</ele>
        <time>2015-04-14T17:52:13Z</time>
      </trkpt>
      <trkpt lat="44.54507" lon="2.30378">
        <ele>257.1</ele>
        <time>2015-04-14T17:52:27Z</time>
      </trkpt>
      <trkpt lat="44.54501" lon="2.30388">
        <ele>257.3</ele>
        <time>2015-04-14T17:52:42Z</time>
      </trkpt>
      <trkpt lat="44.54496" lon="2.30399">
        <ele>257.2</ele>
        <time>2015-04-14T17:53:56Z</time>
      </trkpt>
      <trkpt lat="44.5448" lon="2.3041">
        <ele>257.3</ele>
        <time>2015-04-14T17:54:17Z</time>
      </trkpt>
      <trkpt lat="44.54472" lon="2.30403">
        <ele>257.7</ele>
        <time>2015-04-14T17:54:27Z</time>
      </trkpt>
      <trkpt lat="44.54468" lon="2.3039">
        <ele>257.6</ele>
        <time>2015-04-14T17:54:53Z</time>
      </trkpt>
      <trkpt lat="44.54462" lon="2.3038">
        <ele>257.9</ele>
        <time>2015-04-14T17:55:03Z</time>
      </trkpt>
      <trkpt lat="44.54447" lon="2.30364">
        <ele>258.1</ele>
        <time>2015-04-14T17:55:24Z</time>
      </trkpt>
      <trkpt lat="44.5444" lon="2.30355">
        <ele>258.4</ele>
        <time>2015-04-14T17:55:33Z</time>
      </trkpt>
      <trkpt lat="44.54433" lon="2.30346">
        <ele>257.7</ele>
        <time>2015-04-14T17:55:43Z</time>
      </trkpt>
      <trkpt lat="44.54428" lon="2.30333">
        <ele>257.8</ele>
        <time>2015-04-14T17:55:53Z</time>
      </trkpt>
      <trkpt lat="44.54421" lon="2.30324">
        <ele>258.3</ele>
        <time>2015-04-14T17:56:05Z</time>
      </trkpt>
      <trkpt lat="44.54415" lon="2.30319">
        <ele>257.4</ele>
        <time>2015-04-14T17:56:35Z</time>
      </trkpt>
      <trkpt lat="44.54412" lon="2.30331">
        <ele>258</ele>
        <time>2015-04-14T17:56:45Z</time>
      </trkpt>
      <trkpt lat="44.54406" lon="2.3034">
        <ele>258.1</ele>
        <time>2015-04-14T17:56:52Z</time>
      </trkpt>
      <trkpt lat="44.544" lon="2.30351">
        <ele>260.1</ele>
        <time>2015-04-14T17:57:02Z</time>
      </trkpt>
      <trkpt lat="44.54395" lon="2.30362">
        <ele>260.5</ele>
        <time>2015-04-14T17:57:15Z</time>
      </trkpt>
      <trkpt lat="44.54386" lon="2.30385">
        <ele>261.5</ele>
        <time>2015-04-14T17:57:37Z</time>
      </trkpt>
      <trkpt lat="44.5438" lon="2.30396">
        <ele>261.1</ele>
        <time>2015-04-14T17:57:47Z</time>
      </trkpt>
      <trkpt lat="44.54376" lon="2.30408">
        <ele>262</ele>
        <time>2015-04-14T17:57:56Z</time>
      </trkpt>
      <trkpt lat="44.5438" lon="2.3042">
        <ele>261.8</ele>
        <time>2015-04-14T17:58:06Z</time>
      </trkpt>
      <trkpt lat="44.54387" lon="2.3043">
        <ele>261.3</ele>
        <time>2015-04-14T17:58:17Z</time>
      </trkpt>
      <trkpt lat="44.54389" lon="2.30456">
        <ele>261.9</ele>
        <time>2015-04-14T17:58:44Z</time>
      </trkpt>
      <trkpt lat="44.54386" lon="2.30469">
        <ele>260.8</ele>
        <time>2015-04-14T17:58:55Z</time>
      </trkpt>
      <trkpt lat="44.5438" lon="2.30479">
        <ele>261.3</ele>
        <time>2015-04-14T17:59:06Z</time>
      </trkpt>
      <trkpt lat="44.54373" lon="2.30489">
        <ele>261.7</ele>
        <time>2015-04-14T17:59:17Z</time>
      </trkpt>
      <trkpt lat="44.54366" lon="2.30498">
        <ele>262</ele>
        <time>2015-04-14T17:59:27Z</time>
      </trkpt>
      <trkpt lat="44.54353" lon="2.30518">
        <ele>262.4</ele>
        <time>2015-04-14T17:59:49Z</time>
      </trkpt>
      <trkpt lat="44.54347" lon="2.30528">
        <ele>261.6</ele>
        <time>2015-04-14T17:59:58Z</time>
      </trkpt>
      <trkpt lat="44.5434" lon="2.30537">
        <ele>262.2</ele>
        <time>2015-04-14T18:00:12Z</time>
      </trkpt>
      <trkpt lat="44.54334" lon="2.30547">
        <ele>262.6</ele>
        <time>2015-04-14T18:00:22Z</time>
      </trkpt>
      <trkpt lat="44.5433" lon="2.3056">
        <ele>262.2</ele>
        <time>2015-04-14T18:00:33Z</time>
      </trkpt>
      <trkpt lat="44.54329" lon="2.30585">
        <ele>261.8</ele>
        <time>2015-04-14T18:01:01Z</time>
      </trkpt>
      <trkpt lat="44.54329" lon="2.30599">
        <ele>262.6</ele>
        <time>2015-04-14T18:01:14Z</time>
      </trkpt>
      <trkpt lat="44.5433" lon="2.30612">
        <ele>261</ele>
        <time>2015-04-14T18:01:24Z</time>
      </trkpt>
      <trkpt lat="44.54328" lon="2.30625">
        <ele>262.4</ele>
        <time>2015-04-14T18:01:33Z</time>
      </trkpt>
      <trkpt lat="44.54325" lon="2.30637">
        <ele>261.8</ele>
        <time>2015-04-14T18:01:44Z</time>
      </trkpt>
      <trkpt lat="44.54315" lon="2.3066">
        <ele>261.9</ele>
        <time>2015-04-14T18:02:10Z</time>
      </trkpt>
      <trkpt lat="44.5431" lon="2.30671">
        <ele>262.4</ele>
        <time>2015-04-14T18:02:18Z</time>
      </trkpt>
      <trkpt lat="44.54306" lon="2.30682">
        <ele>262.3</ele>
        <time>2015-04-14T18:02:30Z</time>
      </trkpt>
      <trkpt lat="44.54302" lon="2.30694">
        <ele>262.3</ele>
        <time>2015-04-14T18:02:40Z</time>
      </trkpt>
      <trkpt lat="44.54296" lon="2.30705">
        <ele>262.2</ele>
        <time>2015-04-14T18:02:52Z</time>
      </trkpt>
      <trkpt lat="44.54283" lon="2.30723">
        <ele>262</ele>
        <time>2015-04-14T18:03:14Z</time>
      </trkpt>
      <trkpt lat="44.54276" lon="2.30731">
        <ele>261.7</ele>
        <time>2015-04-14T18:07:25Z</time>
      </trkpt>
      <trkpt lat="44.54264" lon="2.30753">
        <ele>262</ele>
        <time>2015-04-14T18:07:42Z</time>
      </trkpt>
      <trkpt lat="44.5426" lon="2.30765">
        <ele>261.9</ele>
        <time>2015-04-14T18:07:51Z</time>
      </trkpt>
      <trkpt lat="44.54254" lon="2.30775">
        <ele>261</ele>
        <time>2015-04-14T18:08:01Z</time>
      </trkpt>
      <trkpt lat="44.5425" lon="2.30787">
        <ele>260.8</ele>
        <time>2015-04-14T18:08:11Z</time>
      </trkpt>
      <trkpt lat="44.54259" lon="2.30788">
        <ele>260.2</ele>
        <time>2015-04-14T18:08:25Z</time>
      </trkpt>
      <trkpt lat="44.54277" lon="2.30813">
        <ele>259</ele>
        <time>2015-04-14T18:08:44Z</time>
      </trkpt>
      <trkpt lat="44.54287" lon="2.30833">
        <ele>261</ele>
        <time>2015-04-14T18:09:27Z</time>
      </trkpt>
      <trkpt lat="44.54287" lon="2.30847">
        <ele>262.1</ele>
        <time>2015-04-14T18:09:35Z</time>
      </trkpt>
      <trkpt lat="44.54288" lon="2.3086">
        <ele>261.4</ele>
        <time>2015-04-14T18:09:42Z</time>
      </trkpt>
      <trkpt lat="44.54291" lon="2.30872">
        <ele>261.5</ele>
        <time>2015-04-14T18:09:52Z</time>
      </trkpt>
      <trkpt lat="44.54287" lon="2.30897">
        <ele>262.2</ele>
        <time>2015-04-14T18:10:22Z</time>
      </trkpt>
      <trkpt lat="44.54288" lon="2.3091">
        <ele>262.2</ele>
        <time>2015-04-14T18:10:47Z</time>
      </trkpt>
      <trkpt lat="44.54286" lon="2.30923">
        <ele>261.9</ele>
        <time>2015-04-14T18:10:55Z</time>
      </trkpt>
      <trkpt lat="44.54287" lon="2.3095">
        <ele>261.9</ele>
        <time>2015-04-14T18:11:12Z</time>
      </trkpt>
      <trkpt lat="44.54287" lon="2.30963">
        <ele>262.3</ele>
        <time>2015-04-14T18:11:20Z</time>
      </trkpt>
      <trkpt lat="44.54287" lon="2.30976">
        <ele>262.5</ele>
        <time>2015-04-14T18:11:28Z</time>
      </trkpt>
      <trkpt lat="44.54287" lon="2.3099">
        <ele>262.3</ele>
        <time>2015-04-14T18:11:37Z</time>
      </trkpt>
      <trkpt lat="44.54287" lon="2.31003">
        <ele>262.5</ele>
        <time>2015-04-14T18:11:47Z</time>
      </trkpt>
      <trkpt lat="44.54289" lon="2.31015">
        <ele>262.7</ele>
        <time>2015-04-14T18:11:56Z</time>
      </trkpt>
      <trkpt lat="44.5429" lon="2.31041">
        <ele>262.9</ele>
        <time>2015-04-14T18:12:13Z</time>
      </trkpt>
      <trkpt lat="44.54287" lon="2.31054">
        <ele>262.6</ele>
        <time>2015-04-14T18:12:23Z</time>
      </trkpt>
      <trkpt lat="44.54282" lon="2.31066">
        <ele>263.1</ele>
        <time>2015-04-14T18:12:33Z</time>
      </trkpt>
      <trkpt lat="44.54279" lon="2.31079">
        <ele>263.7</ele>
        <time>2015-04-14T18:12:43Z</time>
      </trkpt>
      <trkpt lat="44.54275" lon="2.3109">
        <ele>263</ele>
        <time>2015-04-14T18:12:53Z</time>
      </trkpt>
      <trkpt lat="44.54272" lon="2.31104">
        <ele>262.6</ele>
        <time>2015-04-14T18:13:00Z</time>
      </trkpt>
      <trkpt lat="44.54259" lon="2.31125">
        <ele>263.2</ele>
        <time>2015-04-14T18:13:18Z</time>
      </trkpt>
      <trkpt lat="44.54252" lon="2.31134">
        <ele>263.6</ele>
        <time>2015-04-14T18:13:27Z</time>
      </trkpt>
      <trkpt lat="44.54246" lon="2.31143">
        <ele>263.8</ele>
        <time>2015-04-14T18:13:35Z</time>
      </trkpt>
      <trkpt lat="44.54238" lon="2.31152">
        <ele>263.2</ele>
        <time>2015-04-14T18:13:44Z</time>
      </trkpt>
      <trkpt lat="44.54231" lon="2.31161">
        <ele>263</ele>
        <time>2015-04-14T18:13:52Z</time>
      </trkpt>
      <trkpt lat="44.54225" lon="2.31171">
        <ele>263.5</ele>
        <time>2015-04-14T18:14:00Z</time>
      </trkpt>
      <trkpt lat="44.5422" lon="2.31181">
        <ele>263.1</ele>
        <time>2015-04-14T18:14:10Z</time>
      </trkpt>
      <trkpt lat="44.54209" lon="2.31203">
        <ele>262.4</ele>
        <time>2015-04-14T18:14:32Z</time>
      </trkpt>
      <trkpt lat="44.54203" lon="2.31214">
        <ele>262.4</ele>
        <time>2015-04-14T18:14:40Z</time>
      </trkpt>
      <trkpt lat="44.54198" lon="2.31225">
        <ele>261.9</ele>
        <time>2015-04-14T18:14:49Z</time>
      </trkpt>
      <trkpt lat="44.54193" lon="2.31237">
        <ele>261.7</ele>
        <time>2015-04-14T18:14:58Z</time>
      </trkpt>
      <trkpt lat="44.54189" lon="2.31249">
        <ele>261.4</ele>
        <time>2015-04-14T18:15:07Z</time>
      </trkpt>
      <trkpt lat="44.54183" lon="2.31258">
        <ele>261.3</ele>
        <time>2015-04-14T18:15:13Z</time>
      </trkpt>
      <trkpt lat="44.54168" lon="2.31274">
        <ele>261.4</ele>
        <time>2015-04-14T18:15:29Z</time>
      </trkpt>
      <trkpt lat="44.54164" lon="2.31286">
        <ele>260.8</ele>
        <time>2015-04-14T18:17:06Z</time>
      </trkpt>
      <trkpt lat="44.54152" lon="2.31306">
        <ele>260.7</ele>
        <time>2015-04-14T18:17:25Z</time>
      </trkpt>
      <trkpt lat="44.54146" lon="2.31316">
        <ele>260.7</ele>
        <time>2015-04-14T18:17:35Z</time>
      </trkpt>
      <trkpt lat="44.5414" lon="2.31326">
        <ele>261.8</ele>
        <time>2015-04-14T18:17:44Z</time>
      </trkpt>
      <trkpt lat="44.54135" lon="2.31336">
        <ele>261.8</ele>
        <time>2015-04-14T18:17:53Z</time>
      </trkpt>
      <trkpt lat="44.54128" lon="2.31345">
        <ele>261.8</ele>
        <time>2015-04-14T18:18:02Z</time>
      </trkpt>
      <trkpt lat="44.54121" lon="2.31354">
        <ele>261.6</ele>
        <time>2015-04-14T18:18:11Z</time>
      </trkpt>
      <trkpt lat="44.54109" lon="2.31374">
        <ele>261.7</ele>
        <time>2015-04-14T18:18:31Z</time>
      </trkpt>
      <trkpt lat="44.54101" lon="2.31381">
        <ele>261.7</ele>
        <time>2015-04-14T18:18:39Z</time>
      </trkpt>
      <trkpt lat="44.54098" lon="2.31393">
        <ele>261.5</ele>
        <time>2015-04-14T18:18:47Z</time>
      </trkpt>
      <trkpt lat="44.54105" lon="2.31403">
        <ele>262.7</ele>
        <time>2015-04-14T18:18:56Z</time>
      </trkpt>
      <trkpt lat="44.54113" lon="2.3141">
        <ele>262.3</ele>
        <time>2015-04-14T18:19:06Z</time>
      </trkpt>
      <trkpt lat="44.54121" lon="2.31417">
        <ele>262.9</ele>
        <time>2015-04-14T18:19:21Z</time>
      </trkpt>
      <trkpt lat="44.54133" lon="2.31437">
        <ele>265.5</ele>
        <time>2015-04-14T18:19:45Z</time>
      </trkpt>
      <trkpt lat="44.54142" lon="2.31438">
        <ele>266.5</ele>
        <time>2015-04-14T18:19:51Z</time>
      </trkpt>
      <trkpt lat="44.54151" lon="2.31443">
        <ele>267.1</ele>
        <time>2015-04-14T18:20:13Z</time>
      </trkpt>
      <trkpt lat="44.54159" lon="2.31449">
        <ele>267.6</ele>
        <time>2015-04-14T18:21:05Z</time>
      </trkpt>
      <trkpt lat="44.54171" lon="2.3147">
        <ele>269.3</ele>
        <time>2015-04-14T18:21:27Z</time>
      </trkpt>
      <trkpt lat="44.54172" lon="2.31483">
        <ele>273.2</ele>
        <time>2015-04-14T18:21:53Z</time>
      </trkpt>
      <trkpt lat="44.54175" lon="2.31495">
        <ele>276.1</ele>
        <time>2015-04-14T18:22:09Z</time>
      </trkpt>
      <trkpt lat="44.54192" lon="2.31508">
        <ele>279.2</ele>
        <time>2015-04-14T18:22:26Z</time>
      </trkpt>
      <trkpt lat="44.54198" lon="2.31517">
        <ele>279.3</ele>
        <time>2015-04-14T18:22:32Z</time>
      </trkpt>
      <trkpt lat="44.54206" lon="2.31523">
        <ele>281.1</ele>
        <time>2015-04-14T18:22:39Z</time>
      </trkpt>
      <trkpt lat="44.54213" lon="2.31531">
        <ele>281.6</ele>
        <time>2015-04-14T18:22:49Z</time>
      </trkpt>
      <trkpt lat="44.54221" lon="2.31539">
        <ele>282</ele>
        <time>2015-04-14T18:22:59Z</time>
      </trkpt>
      <trkpt lat="44.5423" lon="2.31545">
        <ele>282.9</ele>
        <time>2015-04-14T18:23:10Z</time>
      </trkpt>
      <trkpt lat="44.54242" lon="2.31564">
        <ele>285.8</ele>
        <time>2015-04-14T18:23:42Z</time>
      </trkpt>
      <trkpt lat="44.5425" lon="2.31572">
        <ele>287.6</ele>
        <time>2015-04-14T18:23:56Z</time>
      </trkpt>
      <trkpt lat="44.54254" lon="2.31583">
        <ele>290</ele>
        <time>2015-04-14T18:24:09Z</time>
      </trkpt>
      <trkpt lat="44.5426" lon="2.31593">
        <ele>292.1</ele>
        <time>2015-04-14T18:24:24Z</time>
      </trkpt>
      <trkpt lat="44.54255" lon="2.3161">
        <ele>296.7</ele>
        <time>2015-04-14T18:25:01Z</time>
      </trkpt>
      <trkpt lat="44.54246" lon="2.3161">
        <ele>298</ele>
        <time>2015-04-14T18:25:15Z</time>
      </trkpt>
      <trkpt lat="44.54238" lon="2.31615">
        <ele>299.7</ele>
        <time>2015-04-14T18:25:32Z</time>
      </trkpt>
      <trkpt lat="44.54252" lon="2.31631">
        <ele>303.7</ele>
        <time>2015-04-14T18:26:06Z</time>
      </trkpt>
      <trkpt lat="44.5426" lon="2.31638">
        <ele>304.3</ele>
        <time>2015-04-14T18:26:16Z</time>
      </trkpt>
      <trkpt lat="44.54266" lon="2.31648">
        <ele>306.3</ele>
        <time>2015-04-14T18:26:28Z</time>
      </trkpt>
      <trkpt lat="44.54272" lon="2.31659">
        <ele>306.4</ele>
        <time>2015-04-14T18:26:39Z</time>
      </trkpt>
      <trkpt lat="44.54283" lon="2.31681">
        <ele>307.9</ele>
        <time>2015-04-14T18:26:59Z</time>
      </trkpt>
      <trkpt lat="44.54289" lon="2.3169">
        <ele>310.1</ele>
        <time>2015-04-14T18:27:22Z</time>
      </trkpt>
      <trkpt lat="44.54292" lon="2.31702">
        <ele>309.6</ele>
        <time>2015-04-14T18:27:35Z</time>
      </trkpt>
      <trkpt lat="44.54296" lon="2.31715">
        <ele>311.7</ele>
        <time>2015-04-14T18:27:48Z</time>
      </trkpt>
      <trkpt lat="44.54305" lon="2.31737">
        <ele>312.7</ele>
        <time>2015-04-14T18:28:13Z</time>
      </trkpt>
      <trkpt lat="44.54312" lon="2.31745">
        <ele>314.4</ele>
        <time>2015-04-14T18:28:38Z</time>
      </trkpt>
      <trkpt lat="44.54316" lon="2.31757">
        <ele>315.3</ele>
        <time>2015-04-14T18:29:28Z</time>
      </trkpt>
      <trkpt lat="44.54329" lon="2.31775">
        <ele>316</ele>
        <time>2015-04-14T18:29:50Z</time>
      </trkpt>
      <trkpt lat="44.54335" lon="2.31785">
        <ele>316.6</ele>
        <time>2015-04-14T18:30:00Z</time>
      </trkpt>
      <trkpt lat="44.54341" lon="2.31796">
        <ele>317.3</ele>
        <time>2015-04-14T18:30:08Z</time>
      </trkpt>
      <trkpt lat="44.54348" lon="2.31804">
        <ele>318.2</ele>
        <time>2015-04-14T18:30:18Z</time>
      </trkpt>
      <trkpt lat="44.54356" lon="2.31811">
        <ele>318.8</ele>
        <time>2015-04-14T18:30:28Z</time>
      </trkpt>
      <trkpt lat="44.54363" lon="2.3182">
        <ele>320.6</ele>
        <time>2015-04-14T18:30:39Z</time>
      </trkpt>
      <trkpt lat="44.54379" lon="2.31836">
        <ele>321.1</ele>
        <time>2015-04-14T18:30:58Z</time>
      </trkpt>
      <trkpt lat="44.54385" lon="2.31846">
        <ele>322.2</ele>
        <time>2015-04-14T18:31:10Z</time>
      </trkpt>
      <trkpt lat="44.54392" lon="2.31855">
        <ele>323.1</ele>
        <time>2015-04-14T18:31:21Z</time>
      </trkpt>
      <trkpt lat="44.544" lon="2.31861">
        <ele>324.5</ele>
        <time>2015-04-14T18:31:31Z</time>
      </trkpt>
      <trkpt lat="44.54409" lon="2.31865">
        <ele>324.3</ele>
        <time>2015-04-14T18:31:42Z</time>
      </trkpt>
      <trkpt lat="44.54428" lon="2.31864">
        <ele>325.7</ele>
        <time>2015-04-14T18:32:05Z</time>
      </trkpt>
      <trkpt lat="44.54438" lon="2.31864">
        <ele>326.2</ele>
        <time>2015-04-14T18:32:15Z</time>
      </trkpt>
      <trkpt lat="44.54447" lon="2.31869">
        <ele>327.7</ele>
        <time>2015-04-14T18:32:24Z</time>
      </trkpt>
      <trkpt lat="44.54456" lon="2.31869">
        <ele>328.6</ele>
        <time>2015-04-14T18:32:33Z</time>
      </trkpt>
      <trkpt lat="44.54465" lon="2.31875">
        <ele>329.9</ele>
        <time>2015-04-14T18:32:49Z</time>
      </trkpt>
      <trkpt lat="44.54473" lon="2.31898">
        <ele>334.9</ele>
        <time>2015-04-14T18:33:32Z</time>
      </trkpt>
      <trkpt lat="44.54478" lon="2.31909">
        <ele>336.9</ele>
        <time>2015-04-14T18:33:55Z</time>
      </trkpt>
      <trkpt lat="44.5449" lon="2.31927">
        <ele>344.1</ele>
        <time>2015-04-14T18:34:48Z</time>
      </trkpt>
      <trkpt lat="44.54494" lon="2.31939">
        <ele>345.6</ele>
        <time>2015-04-14T18:35:03Z</time>
      </trkpt>
      <trkpt lat="44.54491" lon="2.31962">
        <ele>348.7</ele>
        <time>2015-04-14T18:35:26Z</time>
      </trkpt>
      <trkpt lat="44.54496" lon="2.31973">
        <ele>350.2</ele>
        <time>2015-04-14T18:36:04Z</time>
      </trkpt>
      <trkpt lat="44.54508" lon="2.31991">
        <ele>355</ele>
        <time>2015-04-14T18:36:50Z</time>
      </trkpt>
      <trkpt lat="44.54507" lon="2.32005">
        <ele>355.7</ele>
        <time>2015-04-14T18:37:08Z</time>
      </trkpt>
      <trkpt lat="44.54505" lon="2.3203">
        <ele>357.3</ele>
        <time>2015-04-14T18:37:47Z</time>
      </trkpt>
      <trkpt lat="44.54505" lon="2.32043">
        <ele>359.2</ele>
        <time>2015-04-14T18:38:12Z</time>
      </trkpt>
      <trkpt lat="44.54511" lon="2.32067">
        <ele>361.3</ele>
        <time>2015-04-14T18:38:50Z</time>
      </trkpt>
      <trkpt lat="44.54517" lon="2.32078">
        <ele>362.5</ele>
        <time>2015-04-14T18:39:04Z</time>
      </trkpt>
      <trkpt lat="44.54522" lon="2.32088">
        <ele>363.7</ele>
        <time>2015-04-14T18:39:14Z</time>
      </trkpt>
      <trkpt lat="44.54536" lon="2.32106">
        <ele>367.8</ele>
        <time>2015-04-14T18:39:39Z</time>
      </trkpt>
      <trkpt lat="44.54534" lon="2.3212">
        <ele>367.7</ele>
        <time>2015-04-14T18:39:51Z</time>
      </trkpt>
      <trkpt lat="44.54533" lon="2.32133">
        <ele>366.9</ele>
        <time>2015-04-14T18:40:03Z</time>
      </trkpt>
      <trkpt lat="44.54532" lon="2.32147">
        <ele>368.4</ele>
        <time>2015-04-14T18:40:22Z</time>
      </trkpt>
      <trkpt lat="44.54529" lon="2.32173">
        <ele>366.7</ele>
        <time>2015-04-14T18:40:42Z</time>
      </trkpt>
      <trkpt lat="44.54529" lon="2.32187">
        <ele>366.2</ele>
        <time>2015-04-14T18:40:51Z</time>
      </trkpt>
      <trkpt lat="44.54528" lon="2.322">
        <ele>366.2</ele>
        <time>2015-04-14T18:41:01Z</time>
      </trkpt>
      <trkpt lat="44.54524" lon="2.32212">
        <ele>366.4</ele>
        <time>2015-04-14T18:41:12Z</time>
      </trkpt>
      <trkpt lat="44.54516" lon="2.32221">
        <ele>364.9</ele>
        <time>2015-04-14T18:41:24Z</time>
      </trkpt>
      <trkpt lat="44.54508" lon="2.32233">
        <ele>363.5</ele>
        <time>2015-04-14T18:42:42Z</time>
      </trkpt>
    </trkseg>
  </trk>
</gpx>